Terminal Aerodrome Forecast
Issued by NWS

Home | Current Version | Previous Version | Text Only | Print | Product List | Glossary On
Versions: 1 2 3 4 5 6 7 8 9 10 11 12 13 14 15
000
FTUS46 KMTR 272336
TAFMRY
TAF
KMRY 272336Z 2800/2824 31008KT P6SM SKC
     FM280200 27008KT P6SM SKC
     FM280500 23005KT P6SM SCT010
     FM280900 VRB03KT P6SM BKN010
     FM281500 31006KT P6SM FEW010=

USA.gov is the U.S. government's official web portal to all federal, state and local government web resources and services.